Time;durP1;ratioP1;P1;durP2;ratioP2;P2;SDS_P1;SDS_P2;PMS_P1;PMS_P2;Temp;Humidity;BMP_temperature;BMP_pressure;BME280_temperature;BME280_humidity;BME280_pressure;Samples;Min_cycle;Max_cycle;Signal;HPM_P1;HPM_P2
2022/01/13 00:00:58;;;;;;;;;;;3.00;91.30;;;;;;4159183;28;20011;-46
2022/01/13 00:03:00;;;;;;;;;;;3.10;91.80;;;;;;4160986;28;20655;-46
2022/01/13 00:05:03;;;;;;;;;;;3.20;91.60;;;;;;4158416;28;20397;-45
2022/01/13 00:07:05;;;;;;;;;;;3.10;91.70;;;;;;4161855;28;20374;-45
2022/01/13 00:09:07;;;;;;;;;;;3.00;92.10;;;;;;4152988;28;19929;-46
2022/01/13 00:11:09;;;;;;;;;;;2.90;92.70;;;;;;4160783;28;19925;-46
2022/01/13 00:13:20;;;;;;;;;;;2.80;93.10;;;;;;4157881;28;20012;-46
2022/01/13 00:15:36;;;;;;;;;;;2.60;92.90;;;;;;4161327;28;19921;-47
2022/01/13 00:18:03;;;;;;;;;;;2.60;92.40;;;;;;4158753;28;19924;-45
2022/01/13 00:22:45;;;;;;;;;;;2.80;91.90;;;;;;4159093;28;19951;-48
2022/01/13 00:24:51;;;;;;;;;;;3.20;92.20;;;;;;4158584;28;19921;-47
2022/01/13 00:26:54;;;;;;;;;;;3.20;91.90;;;;;;4159209;28;20353;-46
2022/01/13 00:29:02;;;;;;;;;;;3.10;91.90;;;;;;4159516;28;19925;-47
2022/01/13 00:31:06;;;;;;;;;;;3.20;92.50;;;;;;4159932;28;19932;-46
2022/01/13 00:33:10;;;;;;;;;;;3.00;93.00;;;;;;4157581;28;19928;-46
2022/01/13 00:35:12;;;;;;;;;;;3.00;92.80;;;;;;4159240;28;19952;-46
2022/01/13 00:37:14;;;;;;;;;;;3.00;92.50;;;;;;4157647;28;20416;-48
2022/01/13 00:39:16;;;;;;;;;;;3.10;92.90;;;;;;4161081;28;19964;-48
2022/01/13 00:41:19;;;;;;;;;;;3.00;93.20;;;;;;4159015;28;19921;-47
2022/01/13 00:43:21;;;;;;;;;;;3.00;93.10;;;;;;4161438;28;19943;-46
2022/01/13 00:45:23;;;;;;;;;;;2.80;93.50;;;;;;4159143;28;19927;-48
2022/01/13 00:47:27;;;;;;;;;;;2.80;93.60;;;;;;4161238;28;19988;-45
2022/01/13 00:49:29;;;;;;;;;;;2.80;93.10;;;;;;4158547;28;19955;-48
2022/01/13 00:51:31;;;;;;;;;;;2.70;92.60;;;;;;4168969;28;19975;-46
2022/01/13 00:53:33;;;;;;;;;;;2.80;92.40;;;;;;4159448;28;20007;-45
2022/01/13 00:57:55;;;;;;;;;;;2.70;91.30;;;;;;4157531;28;19928;-45
2022/01/13 00:59:58;;;;;;;;;;;2.70;91.50;;;;;;4155085;28;19960;-46
2022/01/13 01:02:00;;;;;;;;;;;2.80;91.30;;;;;;4156889;28;19925;-48
2022/01/13 01:04:03;;;;;;;;;;;2.90;91.30;;;;;;4161158;28;20348;-46
2022/01/13 01:06:05;;;;;;;;;;;2.80;91.40;;;;;;4155750;28;19959;-46
2022/01/13 01:08:09;;;;;;;;;;;2.70;91.70;;;;;;4159884;28;19944;-47
2022/01/13 01:10:11;;;;;;;;;;;2.80;91.80;;;;;;4158045;28;19968;-49
2022/01/13 01:12:13;;;;;;;;;;;2.90;91.70;;;;;;4161327;28;19921;-48
2022/01/13 01:14:16;;;;;;;;;;;2.90;92.10;;;;;;4159545;28;20004;-46
2022/01/13 01:16:18;;;;;;;;;;;2.90;92.60;;;;;;4146399;28;20527;-48
2022/01/13 01:20:50;;;;;;;;;;;3.00;93.20;;;;;;4145502;28;19925;-45
2022/01/13 01:25:16;;;;;;;;;;;3.10;92.30;;;;;;4167464;28;19921;-47
2022/01/13 01:27:21;;;;;;;;;;;3.30;91.30;;;;;;4159006;28;19968;-47
2022/01/13 01:29:33;;;;;;;;;;;3.40;90.80;;;;;;4157727;28;19929;-46
2022/01/13 01:31:37;;;;;;;;;;;3.30;90.60;;;;;;4159886;28;20011;-47
2022/01/13 01:33:44;;;;;;;;;;;3.40;90.20;;;;;;4158426;28;20557;-47
2022/01/13 01:35:48;;;;;;;;;;;3.30;90.10;;;;;;4161296;28;19976;-48
2022/01/13 01:37:50;;;;;;;;;;;3.20;90.10;;;;;;4159454;28;19964;-46
2022/01/13 01:39:52;;;;;;;;;;;3.40;90.70;;;;;;4159686;28;19925;-50
2022/01/13 01:41:55;;;;;;;;;;;3.40;91.10;;;;;;4157332;28;19928;-47
2022/01/13 01:44:01;;;;;;;;;;;3.20;91.10;;;;;;4160898;28;19971;-46
2022/01/13 01:46:03;;;;;;;;;;;3.10;91.30;;;;;;4159706;28;19921;-47
2022/01/13 01:48:05;;;;;;;;;;;2.90;91.50;;;;;;4149928;28;19928;-46
2022/01/13 01:50:11;;;;;;;;;;;2.80;91.80;;;;;;4153973;28;20016;-47
2022/01/13 01:52:14;;;;;;;;;;;2.90;91.20;;;;;;4164327;28;20385;-47
2022/01/13 01:54:16;;;;;;;;;;;3.00;90.50;;;;;;4160142;28;19976;-45
2022/01/13 01:56:18;;;;;;;;;;;2.90;90.10;;;;;;4163453;28;19964;-47
2022/01/13 01:58:20;;;;;;;;;;;2.80;91.20;;;;;;4161255;28;20032;-45
2022/01/13 02:00:24;;;;;;;;;;;3.00;91.40;;;;;;4163478;28;20011;-47
2022/01/13 02:02:28;;;;;;;;;;;3.20;91.50;;;;;;4159655;28;20567;-48
2022/01/13 02:04:30;;;;;;;;;;;3.10;91.20;;;;;;4174482;28;19931;-45
2022/01/13 02:06:33;;;;;;;;;;;3.00;91.50;;;;;;4166511;28;20452;-45
2022/01/13 02:08:34;;;;;;;;;;;2.80;91.10;;;;;;4162398;28;20528;-45
2022/01/13 02:10:36;;;;;;;;;;;2.70;90.70;;;;;;4161242;28;19968;-47
2022/01/13 02:12:43;;;;;;;;;;;2.70;91.20;;;;;;4162646;28;19972;-44
2022/01/13 02:16:51;;;;;;;;;;;2.60;90.20;;;;;;4162868;28;19974;-46
2022/01/13 02:18:53;;;;;;;;;;;2.70;89.80;;;;;;4160702;28;20371;-44
2022/01/13 02:20:55;;;;;;;;;;;2.70;89.40;;;;;;4161746;28;20304;-48
2022/01/13 02:22:57;;;;;;;;;;;2.70;90.10;;;;;;4160525;28;20027;-48
2022/01/13 02:25:00;;;;;;;;;;;2.60;90.20;;;;;;4151416;28;19927;-46
2022/01/13 02:27:03;;;;;;;;;;;2.60;90.20;;;;;;4161097;28;20004;-46
2022/01/13 02:29:04;;;;;;;;;;;2.70;89.40;;;;;;4161021;28;19960;-45
2022/01/13 02:31:06;;;;;;;;;;;2.80;90.30;;;;;;4160297;28;20016;-47
2022/01/13 02:33:08;;;;;;;;;;;2.70;90.50;;;;;;4163662;28;19920;-47
2022/01/13 02:35:10;;;;;;;;;;;2.90;87.90;;;;;;4160111;28;19975;-46
2022/01/13 02:37:12;;;;;;;;;;;3.00;88.90;;;;;;4162620;28;19921;-46
2022/01/13 02:39:14;;;;;;;;;;;2.90;87.50;;;;;;4158625;28;21276;-45
2022/01/13 02:41:16;;;;;;;;;;;2.60;89.40;;;;;;4162576;28;19925;-50
2022/01/13 02:43:18;;;;;;;;;;;2.40;88.80;;;;;;4159114;28;20006;-48
2022/01/13 02:45:21;;;;;;;;;;;2.60;88.10;;;;;;4162618;28;19987;-47
2022/01/13 02:49:43;;;;;;;;;;;3.30;86.00;;;;;;4148875;28;19983;-46
2022/01/13 02:51:46;;;;;;;;;;;3.20;86.00;;;;;;4163368;28;19920;-47
2022/01/13 02:53:48;;;;;;;;;;;2.80;86.40;;;;;;4171140;28;19921;-49
2022/01/13 02:55:50;;;;;;;;;;;2.80;86.50;;;;;;4160014;28;19928;-47
2022/01/13 02:57:52;;;;;;;;;;;3.00;84.80;;;;;;4160730;28;20020;-47
2022/01/13 02:59:54;;;;;;;;;;;2.90;86.50;;;;;;4161386;28;19972;-47
2022/01/13 03:01:56;;;;;;;;;;;2.90;84.70;;;;;;4160535;28;20060;-46
2022/01/13 03:04:06;;;;;;;;;;;3.30;87.50;;;;;;4159710;28;19975;-46
2022/01/13 03:06:08;;;;;;;;;;;3.30;89.30;;;;;;4161787;28;20401;-47
2022/01/13 03:08:11;;;;;;;;;;;3.50;89.20;;;;;;4161062;28;19960;-47
2022/01/13 03:10:13;;;;;;;;;;;3.30;90.60;;;;;;4160431;28;20535;-46
2022/01/13 03:12:15;;;;;;;;;;;3.30;89.90;;;;;;4160622;28;20328;-47
2022/01/13 03:14:17;;;;;;;;;;;3.00;90.80;;;;;;4159075;28;19926;-49
2022/01/13 03:16:19;;;;;;;;;;;2.80;90.30;;;;;;4162343;28;19959;-47
2022/01/13 03:18:23;;;;;;;;;;;2.80;90.00;;;;;;4156289;28;19925;-46
2022/01/13 03:20:26;;;;;;;;;;;2.80;89.80;;;;;;4161948;28;20302;-48
2022/01/13 03:22:28;;;;;;;;;;;3.00;89.50;;;;;;4157304;28;20377;-47
2022/01/13 03:24:31;;;;;;;;;;;3.10;89.30;;;;;;4162377;28;19928;-48
2022/01/13 03:26:33;;;;;;;;;;;3.00;89.50;;;;;;4155461;28;19925;-45
2022/01/13 03:28:39;;;;;;;;;;;2.90;90.20;;;;;;4158332;28;20039;-46
2022/01/13 03:30:42;;;;;;;;;;;2.70;90.20;;;;;;4157987;28;19925;-46
2022/01/13 03:32:44;;;;;;;;;;;2.70;90.30;;;;;;4162173;28;20015;-48
2022/01/13 03:34:46;;;;;;;;;;;2.70;91.10;;;;;;4158225;28;19925;-46
2022/01/13 03:36:48;;;;;;;;;;;2.90;90.20;;;;;;4160698;28;20333;-47
2022/01/13 03:38:51;;;;;;;;;;;2.90;91.60;;;;;;4156769;28;19931;-47
2022/01/13 03:40:53;;;;;;;;;;;2.70;91.90;;;;;;4162004;28;19971;-48
2022/01/13 03:42:56;;;;;;;;;;;2.60;91.70;;;;;;4154902;28;19921;-47
2022/01/13 03:44:58;;;;;;;;;;;2.50;92.60;;;;;;4161476;28;19964;-47
2022/01/13 03:47:02;;;;;;;;;;;2.40;93.20;;;;;;4157047;28;19968;-47
2022/01/13 03:49:07;;;;;;;;;;;2.30;93.40;;;;;;4162338;28;19928;-46
2022/01/13 03:51:09;;;;;;;;;;;2.30;93.40;;;;;;4158891;28;20431;-45
2022/01/13 03:53:27;;;;;;;;;;;2.30;93.50;;;;;;4161144;28;20456;-46
2022/01/13 03:55:35;;;;;;;;;;;2.40;93.30;;;;;;4157546;28;20023;-47
2022/01/13 03:57:55;;;;;;;;;;;2.40;93.50;;;;;;4160565;28;20393;-46
2022/01/13 04:00:16;;;;;;;;;;;2.50;93.20;;;;;;4157541;28;20019;-47
2022/01/13 04:02:18;;;;;;;;;;;2.60;93.10;;;;;;4154153;28;20011;-47
2022/01/13 04:04:20;;;;;;;;;;;2.50;93.20;;;;;;4159592;28;19921;-46
2022/01/13 04:06:22;;;;;;;;;;;2.50;93.10;;;;;;4159396;28;19968;-47
2022/01/13 04:08:24;;;;;;;;;;;2.70;92.70;;;;;;4156942;28;19953;-48
2022/01/13 04:10:41;;;;;;;;;;;2.60;93.00;;;;;;4160394;28;19921;-49
2022/01/13 04:12:43;;;;;;;;;;;2.90;91.80;;;;;;4160722;28;19921;-46
2022/01/13 04:14:49;;;;;;;;;;;3.00;91.80;;;;;;4159627;28;20345;-46
2022/01/13 04:16:51;;;;;;;;;;;2.80;92.80;;;;;;4160370;28;19932;-46
2022/01/13 04:18:55;;;;;;;;;;;2.60;92.90;;;;;;4158526;28;19929;-46
2022/01/13 04:20:56;;;;;;;;;;;2.40;93.10;;;;;;4159195;28;20011;-46
2022/01/13 04:22:58;;;;;;;;;;;2.30;94.10;;;;;;4159763;28;20004;-47
2022/01/13 04:25:00;;;;;;;;;;;2.40;94.00;;;;;;4156992;28;20576;-46
2022/01/13 04:27:02;;;;;;;;;;;2.40;94.10;;;;;;4158016;28;19932;-48
2022/01/13 04:30:10;;;;;;;;;;;2.40;93.90;;;;;;4161473;28;20024;-47
2022/01/13 04:31:27;;;;;;;;;;;2.50;93.90;;;;;;4156180;28;20653;-47
2022/01/13 04:33:33;;;;;;;;;;;2.80;93.60;;;;;;4160963;28;19964;-46
2022/01/13 04:35:35;;;;;;;;;;;2.90;93.70;;;;;;4157196;28;19969;-46
2022/01/13 04:37:38;;;;;;;;;;;2.80;93.90;;;;;;4161682;28;19972;-45
2022/01/13 04:39:40;;;;;;;;;;;3.20;93.20;;;;;;4158814;28;20405;-47
2022/01/13 04:41:44;;;;;;;;;;;3.20;93.80;;;;;;4159147;28;19971;-46
2022/01/13 04:43:46;;;;;;;;;;;3.20;93.90;;;;;;4157776;28;19925;-47
2022/01/13 04:45:48;;;;;;;;;;;3.00;94.10;;;;;;4163286;28;19925;-47
2022/01/13 04:47:52;;;;;;;;;;;2.90;94.00;;;;;;4157301;28;19967;-46
2022/01/13 04:49:54;;;;;;;;;;;2.90;94.30;;;;;;4159091;28;19972;-47
2022/01/13 04:51:56;;;;;;;;;;;2.70;95.30;;;;;;4157477;28;19925;-49
2022/01/13 04:53:58;;;;;;;;;;;2.60;95.30;;;;;;4161805;28;19979;-47
2022/01/13 04:56:08;;;;;;;;;;;2.50;95.60;;;;;;4157943;28;19976;-45
2022/01/13 04:58:10;;;;;;;;;;;2.30;95.90;;;;;;4159939;28;20015;-48
2022/01/13 05:00:12;;;;;;;;;;;2.10;96.30;;;;;;4157306;28;19961;-47
2022/01/13 05:02:16;;;;;;;;;;;1.90;96.20;;;;;;4159484;28;19921;-48
2022/01/13 05:04:18;;;;;;;;;;;2.00;96.20;;;;;;4158155;28;19924;-46
2022/01/13 05:06:20;;;;;;;;;;;2.10;96.40;;;;;;4160511;28;20008;-46
2022/01/13 05:08:22;;;;;;;;;;;2.20;96.50;;;;;;4159503;28;20678;-46
2022/01/13 05:10:24;;;;;;;;;;;2.20;96.50;;;;;;4160278;28;19921;-48
2022/01/13 05:12:32;;;;;;;;;;;2.40;96.10;;;;;;4156100;28;19975;-45
2022/01/13 05:14:34;;;;;;;;;;;2.50;96.10;;;;;;4158430;28;20043;-48
2022/01/13 05:16:52;;;;;;;;;;;2.60;96.00;;;;;;4158526;28;19928;-47
2022/01/13 05:21:02;;;;;;;;;;;2.60;95.90;;;;;;4158642;28;19961;-46
2022/01/13 05:23:05;;;;;;;;;;;2.50;95.90;;;;;;4160659;28;20406;-45
2022/01/13 05:25:08;;;;;;;;;;;2.40;96.20;;;;;;4160053;28;19932;-49
2022/01/13 05:27:10;;;;;;;;;;;2.40;96.30;;;;;;4154349;28;20011;-47
2022/01/13 05:29:17;;;;;;;;;;;2.30;96.50;;;;;;4160157;28;19963;-49
2022/01/13 05:31:19;;;;;;;;;;;2.70;94.90;;;;;;4160609;28;20007;-48
2022/01/13 05:33:21;;;;;;;;;;;2.60;95.40;;;;;;4162721;28;20014;-47
2022/01/13 05:35:24;;;;;;;;;;;2.50;95.80;;;;;;4162341;28;20453;-46
2022/01/13 05:37:26;;;;;;;;;;;2.40;95.90;;;;;;4163632;28;20055;-46
2022/01/13 05:39:28;;;;;;;;;;;2.30;96.10;;;;;;4161254;28;20012;-49
2022/01/13 05:41:31;;;;;;;;;;;2.30;96.10;;;;;;4162759;28;19955;-49
2022/01/13 05:43:33;;;;;;;;;;;2.20;96.40;;;;;;4160516;28;20374;-47
2022/01/13 05:45:35;;;;;;;;;;;2.30;96.90;;;;;;4164149;28;20365;-46
2022/01/13 05:47:37;;;;;;;;;;;2.30;96.90;;;;;;4160202;28;20060;-48
2022/01/13 05:49:42;;;;;;;;;;;2.40;95.60;;;;;;4163580;28;20020;-47
2022/01/13 05:51:44;;;;;;;;;;;2.70;93.20;;;;;;4160148;28;20289;-48
2022/01/13 05:53:46;;;;;;;;;;;2.70;93.90;;;;;;4161010;28;19920;-46
2022/01/13 05:55:48;;;;;;;;;;;2.70;94.30;;;;;;4160471;28;19925;-47
2022/01/13 05:57:50;;;;;;;;;;;2.70;94.60;;;;;;4163080;28;20410;-50
2022/01/13 05:59:52;;;;;;;;;;;2.60;94.80;;;;;;4160687;28;19921;-47
2022/01/13 06:01:54;;;;;;;;;;;2.60;95.50;;;;;;4163406;28;20011;-50
2022/01/13 06:03:56;;;;;;;;;;;2.60;95.40;;;;;;4160143;28;19921;-48
2022/01/13 06:05:58;;;;;;;;;;;2.50;95.30;;;;;;4161663;28;19929;-49
2022/01/13 06:08:00;;;;;;;;;;;2.40;95.30;;;;;;4161061;28;20512;-49
2022/01/13 06:10:03;;;;;;;;;;;2.40;95.00;;;;;;4162839;28;20008;-48
2022/01/13 06:12:06;;;;;;;;;;;2.70;93.70;;;;;;4159276;28;19929;-46
2022/01/13 06:14:07;;;;;;;;;;;2.60;94.50;;;;;;4162866;28;20020;-48
2022/01/13 06:16:09;;;;;;;;;;;2.50;94.70;;;;;;4161203;28;19925;-49
2022/01/13 06:18:12;;;;;;;;;;;2.50;94.50;;;;;;4159093;28;19921;-48
2022/01/13 06:20:15;;;;;;;;;;;2.50;95.40;;;;;;4160069;28;20276;-47
2022/01/13 06:22:17;;;;;;;;;;;2.40;95.30;;;;;;4161242;28;20292;-48
2022/01/13 06:24:19;;;;;;;;;;;2.30;95.40;;;;;;4160095;28;19935;-50
2022/01/13 06:26:21;;;;;;;;;;;2.50;95.90;;;;;;4163549;28;19975;-49
2022/01/13 06:28:23;;;;;;;;;;;2.60;96.20;;;;;;4160857;28;19959;-48
2022/01/13 06:30:25;;;;;;;;;;;2.60;96.80;;;;;;4162575;28;20520;-50
2022/01/13 06:32:27;;;;;;;;;;;2.60;96.90;;;;;;4160827;28;20007;-48
2022/01/13 06:34:29;;;;;;;;;;;2.60;96.90;;;;;;4160820;28;20305;-48
2022/01/13 06:36:31;;;;;;;;;;;2.70;96.90;;;;;;4160821;28;19944;-49
2022/01/13 06:38:33;;;;;;;;;;;2.60;97.10;;;;;;4172904;28;19974;-52
2022/01/13 06:40:35;;;;;;;;;;;2.60;97.10;;;;;;4168748;28;19975;-49
2022/01/13 06:42:37;;;;;;;;;;;2.60;97.80;;;;;;4162505;28;19924;-49
2022/01/13 06:44:40;;;;;;;;;;;2.60;97.50;;;;;;4158751;28;19971;-51
2022/01/13 06:46:42;;;;;;;;;;;2.50;97.80;;;;;;4162101;28;19921;-47
2022/01/13 06:48:45;;;;;;;;;;;2.50;97.50;;;;;;4160773;28;20011;-47
2022/01/13 06:50:47;;;;;;;;;;;2.50;97.10;;;;;;4162247;28;19925;-47
2022/01/13 06:52:49;;;;;;;;;;;2.80;96.20;;;;;;4155316;28;21657;-50
2022/01/13 06:54:52;;;;;;;;;;;2.80;96.30;;;;;;4156464;28;19922;-50
2022/01/13 06:56:54;;;;;;;;;;;2.90;96.10;;;;;;4154527;28;19932;-49
2022/01/13 06:58:56;;;;;;;;;;;2.90;96.30;;;;;;4161197;28;19971;-48
2022/01/13 07:00:58;;;;;;;;;;;3.00;96.40;;;;;;4159088;28;19921;-51
2022/01/13 07:03:03;;;;;;;;;;;3.00;96.50;;;;;;4161474;28;19932;-49
2022/01/13 07:05:05;;;;;;;;;;;2.90;96.80;;;;;;4156810;28;20448;-49
2022/01/13 07:07:07;;;;;;;;;;;2.80;97.00;;;;;;4162271;28;19966;-51
2022/01/13 07:09:11;;;;;;;;;;;2.70;97.60;;;;;;4158836;28;19925;-50
2022/01/13 07:11:13;;;;;;;;;;;2.70;97.70;;;;;;4163165;28;19921;-50
2022/01/13 07:13:15;;;;;;;;;;;2.90;97.60;;;;;;4160874;28;19933;-49
2022/01/13 07:15:17;;;;;;;;;;;2.80;98.10;;;;;;4153732;28;19921;-49
2022/01/13 07:17:19;;;;;;;;;;;2.70;98.10;;;;;;4159205;28;19936;-51
2022/01/13 07:19:21;;;;;;;;;;;2.80;98.20;;;;;;4160210;28;19925;-50
2022/01/13 07:21:26;;;;;;;;;;;2.80;97.70;;;;;;4159440;28;19960;-48
2022/01/13 07:23:28;;;;;;;;;;;2.90;97.90;;;;;;4161627;28;19921;-49
2022/01/13 07:25:30;;;;;;;;;;;3.10;98.10;;;;;;4159352;28;20012;-49
2022/01/13 07:27:32;;;;;;;;;;;3.20;98.20;;;;;;4161865;28;20491;-50
2022/01/13 07:29:34;;;;;;;;;;;3.10;98.30;;;;;;4157187;28;19925;-49
2022/01/13 07:31:36;;;;;;;;;;;3.20;98.30;;;;;;4167349;28;19921;-51
2022/01/13 07:33:38;;;;;;;;;;;3.10;98.70;;;;;;4158199;28;19920;-51
2022/01/13 07:35:40;;;;;;;;;;;3.20;99.00;;;;;;4161673;28;20521;-48
2022/01/13 07:37:42;;;;;;;;;;;3.20;98.70;;;;;;4158719;28;19925;-51
2022/01/13 07:39:45;;;;;;;;;;;3.20;98.00;;;;;;4162497;28;19924;-48
2022/01/13 07:41:47;;;;;;;;;;;3.10;97.40;;;;;;4158606;28;19925;-49
2022/01/13 07:43:54;;;;;;;;;;;3.10;97.40;;;;;;4161709;28;19929;-46
2022/01/13 07:45:56;;;;;;;;;;;3.10;97.70;;;;;;4158798;28;20385;-48
2022/01/13 07:47:58;;;;;;;;;;;3.00;98.00;;;;;;4161565;28;19945;-49
2022/01/13 07:50:05;;;;;;;;;;;2.90;97.90;;;;;;4159028;28;19963;-48
2022/01/13 07:52:07;;;;;;;;;;;3.00;97.90;;;;;;4145952;28;19956;-48
2022/01/13 07:54:09;;;;;;;;;;;3.10;98.40;;;;;;4160217;28;19925;-49
2022/01/13 07:56:11;;;;;;;;;;;3.20;98.80;;;;;;4175345;28;19972;-51
2022/01/13 07:58:13;;;;;;;;;;;3.20;98.70;;;;;;4161068;28;19921;-50
2022/01/13 08:00:15;;;;;;;;;;;3.20;98.70;;;;;;4158670;28;19933;-50
2022/01/13 08:02:17;;;;;;;;;;;3.30;98.70;;;;;;4160870;28;20683;-49
2022/01/13 08:04:19;;;;;;;;;;;3.30;98.20;;;;;;4160664;28;19929;-48
2022/01/13 08:06:21;;;;;;;;;;;3.40;97.70;;;;;;4161015;28;19940;-49
2022/01/13 08:08:28;;;;;;;;;;;3.60;98.00;;;;;;4196824;27;2166839;-48
2022/01/13 08:10:30;;;;;;;;;;;3.60;97.60;;;;;;4233372;27;20289;-51
2022/01/13 08:12:32;;;;;;;;;;;3.60;97.30;;;;;;4257150;27;19928;-48
2022/01/13 08:14:34;;;;;;;;;;;3.70;98.10;;;;;;4247692;27;20727;-49
2022/01/13 08:16:41;;;;;;;;;;;3.90;97.00;;;;;;4257627;27;19930;-49
2022/01/13 08:21:03;;;;;;;;;;;4.00;96.90;;;;;;4254660;27;19947;-50
2022/01/13 08:23:06;;;;;;;;;;;4.10;96.70;;;;;;4251710;27;20034;-51
2022/01/13 08:25:09;;;;;;;;;;;4.00;97.00;;;;;;4256662;27;19923;-48
2022/01/13 08:27:10;;;;;;;;;;;4.00;97.10;;;;;;4241670;27;19923;-48
2022/01/13 08:29:12;;;;;;;;;;;4.00;97.50;;;;;;4248710;27;19931;-51
2022/01/13 08:31:14;;;;;;;;;;;4.10;96.70;;;;;;4243162;27;20385;-48
2022/01/13 08:33:18;;;;;;;;;;;4.30;96.60;;;;;;4251246;27;19923;-48
2022/01/13 08:35:20;;;;;;;;;;;4.40;95.60;;;;;;4252612;27;19934;-47
2022/01/13 08:37:23;;;;;;;;;;;4.40;96.20;;;;;;4251807;27;20574;-48
2022/01/13 08:39:25;;;;;;;;;;;4.40;95.60;;;;;;4254517;27;19927;-48
2022/01/13 08:41:27;;;;;;;;;;;4.70;96.40;;;;;;4231606;28;20011;-52
2022/01/13 08:43:29;;;;;;;;;;;4.70;94.90;;;;;;4227128;28;20042;-49
2022/01/13 08:45:31;;;;;;;;;;;4.70;94.40;;;;;;4249880;27;19923;-48
2022/01/13 08:47:33;;;;;;;;;;;4.80;95.30;;;;;;4244698;27;19974;-48
2022/01/13 08:49:36;;;;;;;;;;;4.80;94.90;;;;;;4256277;27;20443;-49
2022/01/13 08:51:38;;;;;;;;;;;4.90;95.10;;;;;;4243051;27;19927;-50
2022/01/13 08:53:40;;;;;;;;;;;4.80;94.60;;;;;;4245217;27;20425;-51
2022/01/13 08:55:42;;;;;;;;;;;4.80;95.80;;;;;;4243054;27;19963;-47
2022/01/13 08:57:44;;;;;;;;;;;5.10;94.00;;;;;;4247360;27;19976;-48
2022/01/13 08:59:46;;;;;;;;;;;5.30;92.50;;;;;;4242554;27;19963;-50
2022/01/13 09:01:48;;;;;;;;;;;5.40;92.90;;;;;;4253428;27;19928;-50
2022/01/13 09:03:50;;;;;;;;;;;5.50;93.20;;;;;;4249092;27;20379;-50
2022/01/13 09:05:52;;;;;;;;;;;5.40;92.90;;;;;;4253537;27;20413;-51
2022/01/13 09:07:54;;;;;;;;;;;5.50;93.20;;;;;;4240772;27;20022;-50
2022/01/13 09:09:56;;;;;;;;;;;5.30;92.80;;;;;;4242808;27;19927;-50
2022/01/13 09:11:58;;;;;;;;;;;5.40;93.60;;;;;;4255104;27;19978;-52
2022/01/13 09:14:00;;;;;;;;;;;5.50;92.20;;;;;;4249670;27;19932;-50
2022/01/13 09:16:04;;;;;;;;;;;5.50;91.70;;;;;;4254094;27;19938;-50
2022/01/13 09:18:13;;;;;;;;;;;5.50;93.00;;;;;;4249116;27;19934;-48
2022/01/13 09:20:15;;;;;;;;;;;5.60;93.50;;;;;;4239990;27;19927;-49
2022/01/13 09:22:18;;;;;;;;;;;5.90;93.60;;;;;;4241394;27;20149;-49
2022/01/13 09:24:21;;;;;;;;;;;5.80;92.10;;;;;;4229750;27;19974;-51
2022/01/13 09:26:23;;;;;;;;;;;5.70;93.60;;;;;;4234976;27;19927;-51
2022/01/13 09:28:25;;;;;;;;;;;5.60;93.30;;;;;;4229192;28;19928;-48
2022/01/13 09:30:27;;;;;;;;;;;5.50;93.40;;;;;;4235125;27;20031;-51
2022/01/13 09:32:29;;;;;;;;;;;5.40;93.40;;;;;;4245424;27;19959;-50
2022/01/13 09:34:32;;;;;;;;;;;5.60;93.50;;;;;;4238704;27;19938;-49
2022/01/13 09:36:34;;;;;;;;;;;5.60;93.40;;;;;;4243196;27;20052;-51
2022/01/13 09:38:37;;;;;;;;;;;5.50;93.20;;;;;;4234931;27;19988;-51
2022/01/13 09:40:39;;;;;;;;;;;5.50;94.10;;;;;;4246044;27;19932;-51
2022/01/13 09:42:42;;;;;;;;;;;5.60;93.50;;;;;;4222094;27;19975;-49
2022/01/13 09:44:46;;;;;;;;;;;5.80;93.80;;;;;;4231162;27;19927;-50
2022/01/13 09:46:48;;;;;;;;;;;5.80;93.30;;;;;;4235020;27;20467;-50
2022/01/13 09:48:50;;;;;;;;;;;5.70;92.80;;;;;;4245776;27;19943;-50
2022/01/13 09:50:52;;;;;;;;;;;5.70;93.50;;;;;;4235683;27;19950;-51
2022/01/13 09:52:54;;;;;;;;;;;6.00;93.90;;;;;;4229455;27;19930;-49
2022/01/13 09:54:56;;;;;;;;;;;6.30;93.30;;;;;;4215358;28;19927;-51
2022/01/13 09:56:58;;;;;;;;;;;6.20;93.30;;;;;;4246043;27;19972;-49
2022/01/13 09:59:00;;;;;;;;;;;6.00;93.00;;;;;;4236834;27;20334;-49
2022/01/13 10:01:02;;;;;;;;;;;6.00;93.00;;;;;;4234062;27;19927;-50
2022/01/13 10:03:10;;;;;;;;;;;6.00;93.30;;;;;;4233519;27;20006;-50
2022/01/13 10:05:15;;;;;;;;;;;6.40;92.50;;;;;;4244720;27;19968;-51
2022/01/13 10:07:35;;;;;;;;;;;6.50;94.10;;;;;;4238627;27;19950;-51
2022/01/13 10:09:57;;;;;;;;;;;6.70;93.60;;;;;;4243783;27;19927;-51
2022/01/13 10:11:59;;;;;;;;;;;6.70;93.00;;;;;;4230236;27;20011;-52
2022/01/13 10:14:11;;;;;;;;;;;6.60;93.20;;;;;;4213459;28;19924;-50
2022/01/13 10:16:23;;;;;;;;;;;6.80;95.50;;;;;;4238149;27;20018;-52
2022/01/13 10:18:36;;;;;;;;;;;6.90;92.90;;;;;;4232586;27;19987;-52
2022/01/13 10:20:38;;;;;;;;;;;6.70;92.30;;;;;;4243073;27;19923;-51
2022/01/13 10:22:40;;;;;;;;;;;6.70;93.00;;;;;;4238779;27;20391;-51
2022/01/13 10:24:43;;;;;;;;;;;6.70;93.70;;;;;;4230216;27;19928;-51
2022/01/13 10:27:07;;;;;;;;;;;6.80;94.20;;;;;;4233458;27;19928;-51
2022/01/13 10:29:08;;;;;;;;;;;6.90;94.20;;;;;;4228121;27;20303;-49
2022/01/13 10:31:10;;;;;;;;;;;7.20;94.00;;;;;;4235360;27;19932;-51
2022/01/13 10:33:19;;;;;;;;;;;7.00;93.10;;;;;;4245269;27;20022;-51
2022/01/13 10:35:21;;;;;;;;;;;7.20;94.40;;;;;;4232608;27;19928;-52
2022/01/13 10:37:30;;;;;;;;;;;7.10;93.60;;;;;;4245425;27;19923;-50
2022/01/13 10:39:51;;;;;;;;;;;7.20;93.90;;;;;;4237277;27;19923;-51
2022/01/13 10:42:13;;;;;;;;;;;7.30;94.20;;;;;;4229256;27;20367;-49
2022/01/13 10:44:18;;;;;;;;;;;7.20;93.60;;;;;;4223833;27;19954;-52
2022/01/13 10:46:19;;;;;;;;;;;7.40;94.60;;;;;;4239101;27;19954;-52
2022/01/13 10:48:26;;;;;;;;;;;7.40;93.80;;;;;;4239082;27;19927;-50
2022/01/13 10:50:32;;;;;;;;;;;7.40;94.00;;;;;;4239630;27;19960;-51
2022/01/13 10:52:34;;;;;;;;;;;7.60;93.90;;;;;;4241144;27;19930;-52
2022/01/13 10:54:36;;;;;;;;;;;7.50;93.70;;;;;;4239613;27;19990;-51
2022/01/13 10:56:38;;;;;;;;;;;7.70;94.00;;;;;;4234076;27;19923;-51
2022/01/13 10:58:41;;;;;;;;;;;7.50;93.70;;;;;;4233184;27;19928;-50
2022/01/13 11:00:45;;;;;;;;;;;7.60;93.70;;;;;;4230515;27;19939;-51
2022/01/13 11:02:57;;;;;;;;;;;7.70;94.40;;;;;;4216650;28;20047;-48
2022/01/13 11:05:01;;;;;;;;;;;7.90;93.50;;;;;;4239893;27;19949;-50
2022/01/13 11:07:19;;;;;;;;;;;7.70;94.10;;;;;;4236648;27;21305;-52
2022/01/13 11:09:23;;;;;;;;;;;7.90;93.90;;;;;;4242926;27;20015;-52
2022/01/13 11:11:28;;;;;;;;;;;7.80;94.80;;;;;;4236648;27;20019;-51
2022/01/13 11:13:35;;;;;;;;;;;8.10;93.70;;;;;;4230964;27;19947;-51
2022/01/13 11:15:44;;;;;;;;;;;8.00;93.60;;;;;;4234824;27;19927;-50
2022/01/13 11:17:48;;;;;;;;;;;7.80;93.60;;;;;;4234201;27;20005;-48
2022/01/13 11:19:50;;;;;;;;;;;7.60;94.10;;;;;;4236469;27;19970;-51
2022/01/13 11:21:52;;;;;;;;;;;7.80;93.90;;;;;;4237307;27;20021;-51
2022/01/13 11:23:55;;;;;;;;;;;7.80;95.00;;;;;;4234431;27;19957;-51
2022/01/13 11:25:57;;;;;;;;;;;8.00;93.80;;;;;;4243516;27;19927;-51
2022/01/13 11:27:59;;;;;;;;;;;8.00;94.00;;;;;;4232080;27;19933;-51
2022/01/13 11:30:07;;;;;;;;;;;7.90;93.40;;;;;;4229632;27;19935;-51
2022/01/13 11:32:09;;;;;;;;;;;8.20;93.80;;;;;;4232641;27;19985;-52
2022/01/13 11:34:11;;;;;;;;;;;8.30;94.10;;;;;;4237330;27;19924;-52
2022/01/13 11:36:13;;;;;;;;;;;8.40;93.80;;;;;;4233185;27;20007;-51
2022/01/13 11:38:18;;;;;;;;;;;8.40;93.50;;;;;;4239980;27;20314;-51
2022/01/13 11:40:26;;;;;;;;;;;8.30;92.40;;;;;;4232821;27;19963;-52
2022/01/13 11:42:43;;;;;;;;;;;8.30;93.90;;;;;;4236259;27;19923;-52
2022/01/13 11:45:05;;;;;;;;;;;8.30;94.10;;;;;;4232236;27;20653;-51
2022/01/13 11:47:24;;;;;;;;;;;8.30;94.30;;;;;;4239905;27;19973;-51
2022/01/13 11:49:40;;;;;;;;;;;8.50;94.10;;;;;;4233126;27;19923;-52
2022/01/13 11:51:43;;;;;;;;;;;8.40;94.00;;;;;;4236232;27;19984;-50
2022/01/13 11:53:55;;;;;;;;;;;8.30;93.70;;;;;;4236441;27;19923;-52
2022/01/13 11:55:59;;;;;;;;;;;8.50;93.30;;;;;;4240039;27;20642;-49
2022/01/13 11:58:21;;;;;;;;;;;8.20;93.70;;;;;;4237978;27;19973;-50
2022/01/13 12:00:24;;;;;;;;;;;8.00;94.10;;;;;;4236202;27;19942;-50
2022/01/13 12:02:30;;;;;;;;;;;8.00;93.70;;;;;;4234710;27;20409;-50
2022/01/13 12:04:33;;;;;;;;;;;8.10;94.40;;;;;;4232403;27;19924;-51
2022/01/13 12:06:37;;;;;;;;;;;8.30;94.10;;;;;;4243697;28;19941;-52
2022/01/13 12:08:48;;;;;;;;;;;8.40;94.80;;;;;;4233336;28;20509;-50
2022/01/13 12:10:50;;;;;;;;;;;8.40;94.30;;;;;;4227238;28;19988;-51
2022/01/13 12:12:52;;;;;;;;;;;8.20;94.40;;;;;;4215003;28;19924;-52
2022/01/13 12:15:12;;;;;;;;;;;8.30;94.50;;;;;;4244065;27;19924;-52
2022/01/13 12:17:26;;;;;;;;;;;8.10;94.80;;;;;;4230354;28;19974;-52
2022/01/13 12:19:35;;;;;;;;;;;8.20;94.10;;;;;;4242106;28;19927;-51
2022/01/13 12:21:42;;;;;;;;;;;8.30;94.20;;;;;;4234447;28;20669;-51
2022/01/13 12:23:44;;;;;;;;;;;8.20;94.50;;;;;;4240706;28;19935;-51
2022/01/13 12:25:46;;;;;;;;;;;8.20;94.50;;;;;;4236630;28;19927;-51
2022/01/13 12:27:49;;;;;;;;;;;8.30;94.60;;;;;;4240293;28;19928;-50
2022/01/13 12:30:06;;;;;;;;;;;8.00;95.00;;;;;;4234409;28;20379;-51
2022/01/13 12:32:09;;;;;;;;;;;8.10;95.20;;;;;;4239165;28;20397;-52